Terminal Aerodrome Forecast
Issued by NWS

Home | Current Version | Previous Version | Text Only | Print | Product List | Glossary On
Versions: 1 2 3 4 5 6 7 8 9 10 11 12 13 14 15 16
000
FTUS45 KREV 151451 AAA
TAFTVL
TAF AMD
KTVL 151451Z 1515/1612 VRB03KT P6SM SCT250 WS020/25055KT
     FM151900 19007G14KT P6SM BKN200 WS020/26060KT
     FM161000 01005KT P6SM SCT040=

USA.gov is the U.S. government's official web portal to all federal, state and local government web resources and services.